Time;durP1;ratioP1;P1;durP2;ratioP2;P2;SDS_P1;SDS_P2;PMS_P1;PMS_P2;Temp;Humidity;BMP_temperature;BMP_pressure;BME280_temperature;BME280_humidity;BME280_pressure;Samples;Min_cycle;Max_cycle;Signal;HPM_P1;HPM_P2
2023/10/07 00:03:20;;;;;;;;;;;13.00;59.30;;;8.55;100.00;96403.31;5015078;28;19909;-48
2023/10/07 00:05:50;;;;;;;;;;;13.00;59.40;;;8.53;100.00;96400.91;5025965;28;19974;-50
2023/10/07 00:08:26;;;;;;;;;;;12.90;59.30;;;8.51;100.00;96400.31;5021250;28;19971;-47
2023/10/07 00:10:53;;;;;;;;;;;12.90;59.40;;;8.55;100.00;96400.66;5021308;28;19916;-49
2023/10/07 00:13:23;;;;;;;;;;;12.90;59.50;;;8.53;100.00;96403.56;5022130;28;19936;-48
2023/10/07 00:15:51;;;;;;;;;;;12.90;59.50;;;8.56;100.00;96396.97;5025800;28;20260;-52
2023/10/07 00:18:22;;;;;;;;;;;12.90;59.60;;;8.56;100.00;96400.44;5023780;28;19974;-48
2023/10/07 00:20:53;;;;;;;;;;;12.90;59.60;;;8.49;100.00;96401.56;5018587;28;19908;-50
2023/10/07 00:23:21;;;;;;;;;;;12.90;59.60;;;8.46;100.00;96392.25;5025943;28;19913;-51
2023/10/07 00:25:52;;;;;;;;;;;12.90;59.60;;;8.49;100.00;96386.47;5016895;28;20436;-51
2023/10/07 00:28:34;;;;;;;;;;;12.80;59.60;;;8.49;100.00;96394.44;5027220;28;20264;-52
2023/10/07 00:31:05;;;;;;;;;;;12.90;59.70;;;8.46;100.00;96394.91;5024712;28;19909;-53
2023/10/07 00:33:49;;;;;;;;;;;12.90;59.70;;;8.40;100.00;96392.34;5013567;28;19955;-53
2023/10/07 00:36:25;;;;;;;;;;;12.80;59.70;;;8.40;100.00;96400.31;5021610;28;19913;-53
2023/10/07 00:38:54;;;;;;;;;;;12.80;59.70;;;8.41;100.00;96388.66;5028581;28;19915;-50
2023/10/07 00:41:23;;;;;;;;;;;12.80;59.80;;;8.40;100.00;96395.00;5030598;28;19909;-52
2023/10/07 00:43:53;;;;;;;;;;;12.80;59.80;;;8.35;100.00;96393.81;5013722;28;19916;-47
2023/10/07 00:46:28;;;;;;;;;;;12.80;59.90;;;8.34;100.00;96396.72;5023350;28;20350;-50
2023/10/07 00:49:09;;;;;;;;;;;12.70;59.80;;;8.22;100.00;96398.53;5026226;28;20252;-50
2023/10/07 00:51:41;;;;;;;;;;;12.70;59.80;;;8.22;100.00;96398.53;5017791;28;20343;-48
2023/10/07 00:54:18;;;;;;;;;;;12.70;59.80;;;8.17;100.00;96390.44;5028767;28;19909;-50
2023/10/07 00:57:02;;;;;;;;;;;12.70;59.80;;;8.09;100.00;96395.06;5015252;28;19924;-47
2023/10/07 00:59:30;;;;;;;;;;;12.60;59.80;;;8.15;100.00;96395.16;5020958;28;19913;-52
2023/10/07 01:01:57;;;;;;;;;;;12.60;59.90;;;8.14;100.00;96391.72;5029210;28;19913;-46
2023/10/07 01:04:24;;;;;;;;;;;12.50;59.90;;;8.10;100.00;96386.06;5030326;28;20328;-46
2023/10/07 01:07:00;;;;;;;;;;;12.60;60.00;;;8.10;100.00;96387.91;5029963;28;19999;-45
2023/10/07 01:09:28;;;;;;;;;;;12.50;60.00;;;8.07;100.00;96375.09;5030008;28;19950;-47
2023/10/07 01:11:57;;;;;;;;;;;12.50;60.10;;;7.99;100.00;96381.56;5029589;28;19909;-47
2023/10/07 01:14:26;;;;;;;;;;;12.50;60.10;;;7.96;100.00;96373.22;5030537;28;19932;-46
2023/10/07 01:16:53;;;;;;;;;;;12.50;60.20;;;7.97;100.00;96370.34;5030438;28;19909;-46
2023/10/07 01:19:19;;;;;;;;;;;12.40;60.10;;;7.93;100.00;96366.56;5030724;28;19909;-47
2023/10/07 01:22:11;;;;;;;;;;;12.40;60.10;;;7.83;100.00;96358.31;5024715;28;20023;-48
2023/10/07 01:29:59;;;;;;;;;;;12.30;60.20;;;7.73;100.00;96364.19;5030522;28;20003;-45
2023/10/07 01:32:32;;;;;;;;;;;12.30;60.20;;;7.73;100.00;96358.88;5025618;28;19912;-45
2023/10/07 01:35:11;;;;;;;;;;;12.20;60.30;;;7.64;100.00;96358.41;5021990;28;19909;-47
2023/10/07 01:37:59;;;;;;;;;;;12.20;60.30;;;7.68;100.00;96360.59;5030350;28;19919;-45
2023/10/07 01:40:41;;;;;;;;;;;12.20;60.30;;;7.70;100.00;96353.22;5030012;28;19913;-45
2023/10/07 01:43:07;;;;;;;;;;;12.10;60.40;;;7.65;100.00;96352.06;5030651;28;20293;-44
2023/10/07 01:45:39;;;;;;;;;;;12.10;60.50;;;7.60;100.00;96354.59;5029300;28;19923;-47
2023/10/07 01:48:09;;;;;;;;;;;12.10;60.60;;;7.59;100.00;96355.63;5030314;28;20011;-45
2023/10/07 01:50:45;;;;;;;;;;;12.10;60.60;;;7.57;100.00;96364.84;5029491;28;19966;-45
2023/10/07 01:53:11;;;;;;;;;;;12.00;60.60;;;7.58;100.00;96361.97;5030487;28;20363;-48
2023/10/07 01:55:43;;;;;;;;;;;12.00;60.70;;;7.51;100.00;96369.19;5030131;28;20332;-48
2023/10/07 01:58:15;;;;;;;;;;;12.00;60.60;;;7.49;100.00;96365.16;5030431;28;19917;-44
2023/10/07 02:00:46;;;;;;;;;;;12.00;60.70;;;7.48;100.00;96364.34;5029882;28;19916;-46
2023/10/07 02:03:16;;;;;;;;;;;12.00;60.80;;;7.45;100.00;96364.78;5033118;28;20429;-45
2023/10/07 02:05:49;;;;;;;;;;;11.90;60.70;;;7.45;100.00;96358.69;5033481;28;20394;-45
2023/10/07 02:08:23;;;;;;;;;;;11.90;60.80;;;7.51;100.00;96361.25;5032330;28;19915;-46
2023/10/07 02:10:51;;;;;;;;;;;11.90;60.90;;;7.50;100.00;96372.09;5033447;28;19916;-45
2023/10/07 02:13:20;;;;;;;;;;;11.90;60.90;;;7.46;100.00;96355.84;5033892;28;19912;-45
2023/10/07 02:15:51;;;;;;;;;;;11.90;60.90;;;7.36;100.00;96355.53;5026576;28;19912;-45
2023/10/07 02:18:19;;;;;;;;;;;11.90;60.80;;;7.30;100.00;96351.97;5033366;28;20316;-45
2023/10/07 02:21:06;;;;;;;;;;;11.80;60.90;;;7.33;100.00;96350.69;5030026;28;19912;-45
2023/10/07 02:23:37;;;;;;;;;;;11.90;61.00;;;7.35;100.00;96349.44;5030793;28;19970;-46
2023/10/07 02:26:16;;;;;;;;;;;11.80;61.10;;;7.33;100.00;96348.88;5033310;28;19943;-46
2023/10/07 02:28:44;;;;;;;;;;;11.80;61.10;;;7.33;100.00;96346.22;5029238;28;19944;-45
2023/10/07 02:31:18;;;;;;;;;;;11.80;61.10;;;7.26;100.00;96342.03;5032954;28;19915;-46
2023/10/07 02:33:45;;;;;;;;;;;11.80;61.10;;;7.19;100.00;96337.63;5026500;28;20383;-49
2023/10/07 02:36:52;;;;;;;;;;;11.70;61.00;;;7.16;100.00;96334.63;5033214;28;19916;-45
2023/10/07 02:39:23;;;;;;;;;;;11.70;61.00;;;7.12;100.00;96346.72;5032986;28;20007;-46
2023/10/07 02:41:50;;;;;;;;;;;11.70;61.10;;;7.06;100.00;96344.94;5033213;28;19909;-45
2023/10/07 02:44:25;;;;;;;;;;;11.60;61.10;;;7.06;100.00;96351.06;5033357;28;19916;-46
2023/10/07 02:46:54;;;;;;;;;;;11.60;61.20;;;7.06;100.00;96352.91;5024891;28;19970;-48
2023/10/07 02:49:21;;;;;;;;;;;11.60;61.30;;;7.08;100.00;96354.31;5033451;28;19909;-47
2023/10/07 02:51:55;;;;;;;;;;;11.60;61.30;;;7.07;100.00;96359.81;5032196;28;19966;-45
2023/10/07 02:54:23;;;;;;;;;;;11.60;61.40;;;7.07;100.00;96359.81;5033117;28;20007;-46
2023/10/07 02:57:02;;;;;;;;;;;11.50;61.40;;;7.06;100.00;96363.50;5028615;28;19962;-45
2023/10/07 02:59:33;;;;;;;;;;;11.50;61.30;;;6.93;100.00;96357.31;5028599;28;20363;-45
2023/10/07 03:02:22;;;;;;;;;;;11.50;61.30;;;6.98;100.00;96355.84;5032923;28;20011;-46
2023/10/07 03:07:41;;;;;;;;;;;11.40;61.40;;;6.95;100.00;96362.38;5025817;28;19916;-45
2023/10/07 03:10:18;;;;;;;;;;;11.40;62.30;;;6.96;100.00;96361.38;5023935;28;19909;-45
2023/10/07 03:12:49;;;;;;;;;;;11.40;61.50;;;6.90;100.00;96363.06;5018858;28;19952;-45
2023/10/07 03:15:40;;;;;;;;;;;11.40;61.50;;;6.85;100.00;96364.75;5024909;28;20332;-45
2023/10/07 03:18:30;;;;;;;;;;;11.30;61.50;;;6.79;100.00;96361.16;5025429;28;20325;-45
2023/10/07 03:21:11;;;;;;;;;;;11.30;62.00;;;6.79;100.00;96363.78;5023243;28;19940;-44
2023/10/07 03:23:47;;;;;;;;;;;11.30;61.60;;;6.82;100.00;96366.00;5017497;28;20388;-45
2023/10/07 03:26:22;;;;;;;;;;;11.20;61.70;;;6.81;100.00;96353.81;5026937;28;19908;-45
2023/10/07 03:28:55;;;;;;;;;;;11.20;62.60;;;6.85;100.00;96357.63;5023355;28;19999;-46
2023/10/07 03:32:12;;;;;;;;;;;11.20;61.80;;;6.87;100.00;96365.34;5027749;28;19963;-45
2023/10/07 03:34:09;;;;;;;;;;;11.30;62.10;;;6.79;100.00;96365.66;5026514;28;20000;-45
2023/10/07 03:36:45;;;;;;;;;;;11.30;62.00;;;6.76;100.00;96368.72;5029638;28;19940;-45
2023/10/07 03:41:51;;;;;;;;;;;11.20;61.90;;;6.73;100.00;96367.31;5031031;28;19913;-44
2023/10/07 03:44:23;;;;;;;;;;;11.20;61.90;;;6.68;100.00;96369.84;5031971;28;19918;-44
2023/10/07 03:46:54;;;;;;;;;;;11.20;61.90;;;6.65;100.00;96367.63;5031205;28;20003;-48
2023/10/07 03:49:33;;;;;;;;;;;11.20;61.90;;;6.63;100.00;96370.50;5032167;28;20368;-47
2023/10/07 03:52:06;;;;;;;;;;;11.10;61.90;;;6.60;100.00;96373.56;5030984;28;19909;-45
2023/10/07 03:54:40;;;;;;;;;;;11.10;61.90;;;6.62;100.00;96373.38;5031584;28;20253;-45
2023/10/07 03:57:07;;;;;;;;;;;11.10;62.00;;;6.58;100.00;96369.53;5030647;28;19920;-45
2023/10/07 03:59:34;;;;;;;;;;;11.10;62.00;;;6.53;100.00;96375.50;5031832;28;19916;-48
2023/10/07 04:02:12;;;;;;;;;;;11.00;62.00;;;6.52;100.00;96375.69;5031904;28;19919;-46
2023/10/07 04:04:41;;;;;;;;;;;11.00;62.00;;;6.48;100.00;96373.50;5030419;28;19913;-47
2023/10/07 04:07:10;;;;;;;;;;;11.00;62.00;;;6.40;100.00;96376.44;5030460;28;26843;-44
2023/10/07 04:09:36;;;;;;;;;;;11.00;62.10;;;6.35;100.00;96373.63;5030595;28;19913;-46
2023/10/07 04:12:03;;;;;;;;;;;10.90;62.00;;;6.39;100.00;96368.69;5031779;28;20359;-44
2023/10/07 04:14:28;;;;;;;;;;;10.90;62.10;;;6.41;100.00;96374.59;5030651;28;19915;-46
2023/10/07 04:17:06;;;;;;;;;;;10.90;62.30;;;6.39;100.00;96368.69;5031273;28;20317;-48
2023/10/07 04:19:38;;;;;;;;;;;10.90;62.30;;;6.31;100.00;96369.81;5030871;28;19908;-46
2023/10/07 04:22:07;;;;;;;;;;;10.80;62.90;;;6.28;100.00;96378.19;5030500;28;19915;-45
2023/10/07 04:24:35;;;;;;;;;;;10.80;62.20;;;6.29;100.00;96374.50;5031273;28;19920;-45
2023/10/07 04:27:03;;;;;;;;;;;10.80;62.30;;;6.28;100.00;96380.03;5029843;28;19909;-46
2023/10/07 04:29:30;;;;;;;;;;;10.80;62.30;;;6.25;100.00;96382.06;5031576;28;19909;-45
2023/10/07 04:32:11;;;;;;;;;;;10.80;62.40;;;6.26;100.00;96388.97;5031403;28;19908;-44
2023/10/07 04:34:48;;;;;;;;;;;10.80;62.40;;;6.29;100.00;96386.91;5021955;28;19909;-46
2023/10/07 04:37:17;;;;;;;;;;;10.80;62.50;;;6.33;100.00;96390.75;5030717;28;19915;-47
2023/10/07 04:42:22;;;;;;;;;;;10.80;62.70;;;6.23;100.00;96392.03;5031160;28;20287;-47
2023/10/07 04:47:38;;;;;;;;;;;10.80;62.70;;;6.30;100.00;96393.81;5026109;28;19948;-46
2023/10/07 04:52:42;;;;;;;;;;;10.70;62.70;;;6.31;100.00;96408.69;5030169;28;20435;-45
2023/10/07 04:55:15;;;;;;;;;;;10.70;62.70;;;6.27;100.00;96403.03;5030757;28;19913;-45
2023/10/07 05:03:15;;;;;;;;;;;10.70;62.70;;;6.17;100.00;96422.03;5024772;28;19919;-46
2023/10/07 05:05:45;;;;;;;;;;;10.70;62.70;;;6.12;100.00;96415.78;5030826;28;20019;-45
2023/10/07 05:08:11;;;;;;;;;;;10.70;62.80;;;6.08;100.00;96420.69;5030839;28;19908;-45
2023/10/07 05:10:43;;;;;;;;;;;10.70;62.80;;;6.01;100.00;96418.06;5029747;28;19944;-44
2023/10/07 05:13:10;;;;;;;;;;;10.60;62.70;;;6.01;100.00;96412.78;5030642;28;19916;-45
2023/10/07 05:15:41;;;;;;;;;;;10.60;62.70;;;6.02;100.00;96410.97;5030084;28;20007;-46
2023/10/07 05:18:16;;;;;;;;;;;10.60;62.80;;;6.01;100.00;96414.63;5030283;28;19908;-45
2023/10/07 05:20:46;;;;;;;;;;;10.60;62.90;;;6.00;100.00;96405.06;5029973;28;20512;-47
2023/10/07 05:23:17;;;;;;;;;;;10.60;62.90;;;5.95;100.00;96402.25;5030651;28;19974;-44
2023/10/07 05:25:50;;;;;;;;;;;10.60;62.90;;;5.91;100.00;96403.69;5030520;28;20288;-46
2023/10/07 05:28:20;;;;;;;;;;;10.50;62.80;;;5.88;100.00;96410.22;5029975;28;20047;-44
2023/10/07 05:30:51;;;;;;;;;;;10.50;62.70;;;5.89;100.00;96416.28;5024429;28;20697;-47
2023/10/07 05:33:35;;;;;;;;;;;10.50;62.90;;;5.92;100.00;96421.16;5029038;28;19932;-50
2023/10/07 05:36:14;;;;;;;;;;;10.40;62.80;;;5.94;100.00;96421.78;5033481;28;20381;-45
2023/10/07 05:38:40;;;;;;;;;;;10.50;63.00;;;5.87;100.00;96419.16;5020637;28;20069;-46
2023/10/07 05:41:06;;;;;;;;;;;10.50;63.00;;;5.87;100.00;96432.38;5034087;28;19912;-44
2023/10/07 05:43:36;;;;;;;;;;;10.50;62.90;;;5.86;100.00;96436.06;5034550;28;19954;-44
2023/10/07 05:46:02;;;;;;;;;;;10.40;62.90;;;5.92;100.00;96450.25;5032902;28;20366;-45
2023/10/07 05:48:27;;;;;;;;;;;10.50;63.00;;;5.96;100.00;96454.94;5034105;28;19920;-45
2023/10/07 05:50:57;;;;;;;;;;;10.50;63.20;;;6.00;100.00;96456.13;5033622;28;19908;-45
2023/10/07 05:53:23;;;;;;;;;;;10.50;63.10;;;6.05;100.00;96462.59;5034365;28;19912;-46
2023/10/07 05:55:49;;;;;;;;;;;10.60;63.20;;;6.07;100.00;96468.50;5033288;28;19915;-44
2023/10/07 05:58:15;;;;;;;;;;;10.60;63.20;;;6.09;100.00;96475.19;5032951;28;20462;-44
2023/10/07 06:00:41;;;;;;;;;;;10.60;63.30;;;6.08;100.00;96467.47;5034037;28;19913;-45
2023/10/07 06:03:12;;;;;;;;;;;10.60;63.20;;;6.10;100.00;96460.13;5032878;28;19916;-45
2023/10/07 06:05:38;;;;;;;;;;;10.70;63.20;;;6.10;100.00;96470.72;5029409;28;19913;-44
2023/10/07 06:08:05;;;;;;;;;;;10.70;63.20;;;6.10;100.00;96468.88;5023166;28;19921;-46
2023/10/07 06:10:33;;;;;;;;;;;10.70;63.10;;;6.12;100.00;96477.41;5020938;28;19916;-45
2023/10/07 06:13:08;;;;;;;;;;;10.80;63.10;;;6.14;100.00;96479.84;5028669;28;19909;-45
2023/10/07 06:15:37;;;;;;;;;;;10.80;63.10;;;6.22;100.00;96487.53;5032075;28;19909;-44
2023/10/07 06:18:07;;;;;;;;;;;10.80;63.10;;;6.25;100.00;96479.97;5021275;28;19947;-45
2023/10/07 06:20:37;;;;;;;;;;;10.90;63.10;;;6.33;100.00;96480.72;5029794;28;20007;-45
2023/10/07 06:23:16;;;;;;;;;;;10.90;63.10;;;6.44;100.00;96478.19;5027054;28;20256;-44
2023/10/07 06:25:51;;;;;;;;;;;11.00;63.30;;;6.62;100.00;96489.84;5026251;28;19924;-47
2023/10/07 06:31:28;;;;;;;;;;;11.10;63.50;;;6.78;100.00;96491.13;5025368;28;19915;-46
2023/10/07 06:34:00;;;;;;;;;;;11.20;64.00;;;6.81;100.00;96482.75;5020281;28;20033;-44
2023/10/07 06:36:31;;;;;;;;;;;11.30;64.30;;;6.84;100.00;96472.53;5032194;28;19919;-44
2023/10/07 06:38:59;;;;;;;;;;;11.40;63.50;;;6.93;100.00;96467.78;5026656;28;19930;-48
2023/10/07 06:41:29;;;;;;;;;;;11.40;63.40;;;7.01;100.00;96469.31;5021798;28;19917;-45
2023/10/07 06:44:02;;;;;;;;;;;11.50;63.40;;;7.11;100.00;96465.13;5021398;28;19939;-44
2023/10/07 06:46:38;;;;;;;;;;;11.60;63.40;;;7.22;100.00;96444.22;5028267;28;19962;-46
2023/10/07 06:49:04;;;;;;;;;;;11.70;63.50;;;7.41;100.00;96448.47;5030317;28;19948;-46
2023/10/07 06:51:30;;;;;;;;;;;11.80;63.60;;;7.51;100.00;96445.28;5032111;28;19944;-46
2023/10/07 06:53:58;;;;;;;;;;;11.90;64.50;;;7.62;100.00;96452.50;5033400;28;19919;-47
2023/10/07 06:56:26;;;;;;;;;;;12.00;63.70;;;7.76;100.00;96463.72;5032587;28;20024;-47
2023/10/07 06:58:59;;;;;;;;;;;12.10;63.70;;;7.84;100.00;96471.38;5032546;28;20384;-46
2023/10/07 07:01:51;;;;;;;;;;;12.30;63.80;;;7.91;100.00;96480.03;5033350;28;19956;-44
2023/10/07 07:04:19;;;;;;;;;;;12.40;63.70;;;7.98;100.00;96479.94;5027193;28;19936;-45
2023/10/07 07:06:57;;;;;;;;;;;12.60;63.60;;;8.14;100.00;96479.28;5032659;28;19931;-46
2023/10/07 07:12:12;;;;;;;;;;;12.80;63.60;;;8.41;100.00;96484.25;5020634;28;19909;-49
2023/10/07 07:14:42;;;;;;;;;;;13.10;63.60;;;8.58;100.00;96485.97;5031639;28;19908;-50
2023/10/07 07:22:44;;;;;;;;;;;14.00;63.20;;;9.37;100.00;96480.28;5001158;28;82064;-49
2023/10/07 07:26:03;;;;;;;;;;;14.30;62.90;;;9.66;100.00;96482.97;5026165;28;19917;-51
2023/10/07 07:28:07;;;;;;;;;;;14.70;62.70;;;10.06;100.00;96493.59;5025132;28;19908;-51
2023/10/07 07:30:35;;;;;;;;;;;15.30;62.40;;;10.41;100.00;96504.06;5032366;28;19913;-48
2023/10/07 07:33:08;;;;;;;;;;;15.70;62.20;;;10.73;100.00;96497.41;5030823;28;19916;-48
2023/10/07 07:35:40;;;;;;;;;;;16.10;61.90;;;11.13;100.00;96507.84;5026187;28;19944;-52
2023/10/07 07:38:17;;;;;;;;;;;16.70;61.70;;;11.60;100.00;96515.41;5022959;28;20359;-52
2023/10/07 07:40:43;;;;;;;;;;;17.20;61.50;;;11.96;100.00;96518.53;5027720;28;20007;-53
2023/10/07 07:43:13;;;;;;;;;;;17.70;61.20;;;12.41;100.00;96520.88;5017636;28;19916;-52
2023/10/07 07:45:40;;;;;;;;;;;18.20;60.90;;;12.88;100.00;96514.84;5023517;28;19917;-54
2023/10/07 07:48:07;;;;;;;;;;;18.70;60.70;;;13.22;100.00;96511.03;5021920;28;20011;-50
2023/10/07 07:50:35;;;;;;;;;;;19.10;60.40;;;13.58;100.00;96509.41;5029248;28;19909;-49
2023/10/07 07:53:07;;;;;;;;;;;19.50;60.10;;;13.93;100.00;96519.44;5031578;28;19959;-49
2023/10/07 07:55:45;;;;;;;;;;;20.00;59.80;;;14.38;100.00;96522.50;5031186;28;19908;-51
2023/10/07 07:58:11;;;;;;;;;;;20.40;59.40;;;14.73;97.55;96533.31;5030681;28;20015;-53
2023/10/07 08:00:44;;;;;;;;;;;20.80;59.10;;;15.12;91.19;96534.63;5026298;28;20282;-51
2023/10/07 08:03:16;;;;;;;;;;;21.20;58.60;;;15.32;88.01;96523.84;5003252;28;23013;-50
2023/10/07 08:05:42;;;;;;;;;;;21.60;58.20;;;15.49;85.30;96532.41;5026626;28;19913;-50
2023/10/07 08:08:24;;;;;;;;;;;21.90;57.60;;;15.71;82.57;96534.00;5017121;28;19916;-53
2023/10/07 08:10:54;;;;;;;;;;;22.20;57.20;;;16.01;78.72;96525.00;5030918;28;19970;-51
2023/10/07 08:13:23;;;;;;;;;;;22.50;56.80;;;16.37;78.23;96525.63;5027964;28;19999;-51
2023/10/07 08:15:51;;;;;;;;;;;22.80;56.50;;;16.74;77.13;96537.75;5019572;28;19978;-52
2023/10/07 08:18:22;;;;;;;;;;;23.10;56.20;;;17.01;74.14;96539.19;5021097;28;19921;-53
2023/10/07 08:20:56;;;;;;;;;;;23.50;55.90;;;17.35;72.38;96533.75;5023020;28;19944;-50
2023/10/07 08:23:28;;;;;;;;;;;23.80;55.50;;;17.69;70.85;96536.38;5023624;28;19908;-51
2023/10/07 08:26:09;;;;;;;;;;;24.20;55.20;;;18.01;68.21;96538.44;5019673;28;19970;-53
2023/10/07 08:31:22;;;;;;;;;;;24.80;54.20;;;18.45;65.40;96541.91;5030570;28;19909;-53
2023/10/07 08:34:10;;;;;;;;;;;25.10;53.80;;;18.86;65.09;96542.13;5030549;28;19916;-54
2023/10/07 08:36:36;;;;;;;;;;;25.40;54.00;;;19.22;63.48;96544.25;5011074;28;19908;-54
2023/10/07 08:39:09;;;;;;;;;;;25.80;52.90;;;19.56;61.86;96537.72;5029706;28;20433;-50
2023/10/07 08:41:40;;;;;;;;;;;25.90;52.50;;;19.84;59.68;96546.69;5024186;28;19909;-52
2023/10/07 08:44:15;;;;;;;;;;;26.20;52.20;;;20.16;60.34;96540.34;5024852;28;20348;-53
2023/10/07 08:46:48;;;;;;;;;;;26.50;51.90;;;20.52;59.26;96545.81;5028740;28;20003;-53
2023/10/07 08:49:24;;;;;;;;;;;26.70;51.60;;;20.89;56.91;96545.78;5018627;28;19909;-53
2023/10/07 08:51:52;;;;;;;;;;;27.10;51.30;;;20.95;56.60;96545.38;5030180;28;19913;-50
2023/10/07 08:54:25;;;;;;;;;;;27.30;50.80;;;21.20;55.75;96554.78;5030047;28;19908;-54
2023/10/07 08:56:57;;;;;;;;;;;27.50;50.20;;;21.25;54.24;96548.44;5030290;28;19959;-53
2023/10/07 08:59:32;;;;;;;;;;;27.70;49.70;;;21.41;54.35;96543.47;5030914;28;20412;-54
2023/10/07 09:02:01;;;;;;;;;;;27.80;49.40;;;21.31;53.79;96541.78;5030841;28;19970;-47
2023/10/07 09:04:33;;;;;;;;;;;28.10;49.30;;;21.27;54.22;96532.66;5030329;28;19913;-51
2023/10/07 09:07:08;;;;;;;;;;;28.20;49.00;;;21.37;53.72;96528.91;5036098;28;19908;-52
2023/10/07 09:09:39;;;;;;;;;;;28.40;48.60;;;21.14;53.21;96523.50;5036279;28;20379;-54
2023/10/07 09:12:14;;;;;;;;;;;28.40;48.30;;;21.02;54.00;96524.06;5037854;28;19975;-53
2023/10/07 09:14:52;;;;;;;;;;;28.50;48.00;;;21.32;53.87;96523.63;5027579;28;20359;-50
2023/10/07 09:17:23;;;;;;;;;;;28.50;47.50;;;21.76;53.25;96527.34;5034348;28;19965;-53
2023/10/07 09:19:58;;;;;;;;;;;28.60;47.40;;;22.11;51.75;96530.97;5037458;28;19916;-53
2023/10/07 09:22:33;;;;;;;;;;;28.70;47.00;;;22.38;52.39;96532.66;5035663;28;19939;-53
2023/10/07 09:25:17;;;;;;;;;;;28.80;46.80;;;22.39;50.50;96534.25;5022694;28;19925;-54
2023/10/07 09:27:54;;;;;;;;;;;29.00;46.70;;;22.45;50.33;96543.03;5033872;28;20272;-50
2023/10/07 09:31:05;;;;;;;;;;;29.20;46.30;;;21.90;52.14;96538.88;5037740;28;20402;-53
2023/10/07 09:33:22;;;;;;;;;;;29.30;45.90;;;22.04;52.31;96539.56;5029867;28;19909;-50
2023/10/07 09:38:41;;;;;;;;;;;29.50;45.60;;;22.26;51.14;96540.63;5035506;28;20417;-50
2023/10/07 09:43:51;;;;;;;;;;;29.80;45.10;;;22.59;51.72;96535.53;5036910;28;19913;-50
2023/10/07 09:46:27;;;;;;;;;;;29.90;44.90;;;22.95;50.56;96537.97;5033190;28;19913;-49
2023/10/07 09:48:57;;;;;;;;;;;30.00;44.60;;;23.31;50.60;96534.06;5037140;28;20018;-49
2023/10/07 09:51:34;;;;;;;;;;;30.20;44.10;;;23.08;49.73;96536.19;5035743;28;20355;-51
2023/10/07 09:54:22;;;;;;;;;;;30.30;43.30;;;23.19;50.18;96545.63;5036766;28;19912;-48
2023/10/07 09:57:48;;;;;;;;;;;30.40;42.80;;;23.71;49.90;96537.34;5036023;28;20085;-51
2023/10/07 10:03:14;;;;;;;;;;;30.90;42.90;;;23.87;48.16;96520.47;5028920;28;20031;-54
2023/10/07 10:06:16;;;;;;;;;;;31.20;42.70;;;24.10;47.74;96518.25;5027439;28;19973;-55
2023/10/07 10:08:59;;;;;;;;;;;31.30;42.60;;;24.05;47.55;96521.19;5031009;28;19919;-49
2023/10/07 10:16:54;;;;;;;;;;;31.70;41.90;;;24.35;46.90;96503.72;5026792;28;19909;-53
2023/10/07 10:19:47;;;;;;;;;;;31.90;41.70;;;24.80;46.31;96497.63;5028511;28;20386;-50
2023/10/07 10:22:23;;;;;;;;;;;32.30;41.40;;;25.45;45.00;96503.44;5033310;28;20030;-51
2023/10/07 10:24:59;;;;;;;;;;;32.80;41.30;;;25.80;43.91;96495.63;5033779;28;20329;-55
2023/10/07 10:27:26;;;;;;;;;;;33.20;40.80;;;25.78;43.67;96488.91;5032436;28;19957;-53
2023/10/07 10:30:04;;;;;;;;;;;33.50;40.40;;;26.07;42.97;96502.34;5033822;28;19909;-50
2023/10/07 10:32:36;;;;;;;;;;;33.80;40.00;;;25.98;43.55;96495.41;5026085;28;20307;-53
2023/10/07 10:35:11;;;;;;;;;;;33.70;39.90;;;25.67;42.57;96496.75;5033056;28;19909;-54
2023/10/07 10:37:37;;;;;;;;;;;33.50;39.80;;;25.55;42.87;96502.97;5033182;28;19912;-54
2023/10/07 10:40:22;;;;;;;;;;;33.50;39.60;;;25.67;43.67;96499.47;5032551;28;20041;-49
2023/10/07 10:42:48;;;;;;;;;;;33.80;39.20;;;25.48;42.61;96486.38;5033471;28;19919;-54
2023/10/07 10:45:25;;;;;;;;;;;33.80;38.50;;;25.47;42.68;96486.72;5032481;28;19913;-50
2023/10/07 10:47:53;;;;;;;;;;;33.90;38.00;;;24.86;43.23;96471.75;5032900;28;19916;-54
2023/10/07 10:50:23;;;;;;;;;;;33.80;37.60;;;25.29;42.67;96470.56;5033205;28;19960;-52
2023/10/07 10:52:50;;;;;;;;;;;33.80;37.60;;;25.46;41.31;96455.13;5022421;28;19963;-53
2023/10/07 10:55:19;;;;;;;;;;;33.80;37.50;;;25.44;41.94;96462.84;5031388;28;20004;-49
2023/10/07 10:57:45;;;;;;;;;;;33.90;36.80;;;25.69;41.12;96458.19;5020902;28;19927;-46
2023/10/07 11:00:22;;;;;;;;;;;34.00;36.30;;;25.65;40.68;96460.03;5016727;28;19909;-49
2023/10/07 11:02:53;;;;;;;;;;;34.10;36.10;;;25.84;40.73;96452.09;5019453;28;19927;-49
2023/10/07 11:05:21;;;;;;;;;;;34.00;35.70;;;25.99;40.55;96456.06;5015306;28;20482;-50
2023/10/07 11:07:50;;;;;;;;;;;34.10;35.60;;;25.60;41.89;96453.66;5018684;28;20395;-50
2023/10/07 11:10:22;;;;;;;;;;;34.20;35.10;;;26.01;42.22;96461.97;5016415;28;19992;-45
2023/10/07 11:12:52;;;;;;;;;;;34.50;35.10;;;26.34;39.27;96466.47;5016095;28;19913;-48
2023/10/07 11:15:24;;;;;;;;;;;34.80;35.10;;;26.52;39.34;96484.22;5011619;28;19916;-50
2023/10/07 11:18:07;;;;;;;;;;;35.00;35.10;;;26.95;38.26;96477.19;5015210;28;19909;-50
2023/10/07 11:20:43;;;;;;;;;;;35.00;35.20;;;26.92;36.73;96481.44;5014798;28;20347;-49
2023/10/07 11:23:10;;;;;;;;;;;35.00;35.20;;;26.78;36.40;96483.78;5016946;28;19916;-47
2023/10/07 11:25:41;;;;;;;;;;;35.00;34.70;;;26.69;35.93;96485.84;5012857;28;19917;-46
2023/10/07 11:28:11;;;;;;;;;;;34.90;34.50;;;26.49;37.23;96471.25;4999955;28;19971;-47
2023/10/07 11:30:47;;;;;;;;;;;34.80;34.40;;;26.62;38.03;96475.53;5011003;28;20287;-52
2023/10/07 11:33:17;;;;;;;;;;;34.90;34.40;;;26.72;38.28;96479.69;5017991;28;19978;-51
2023/10/07 11:35:46;;;;;;;;;;;35.00;34.20;;;26.82;37.74;96476.47;5014607;28;19915;-46
2023/10/07 11:38:13;;;;;;;;;;;35.30;34.30;;;26.84;37.40;96478.88;5016927;28;19909;-46
2023/10/07 11:40:39;;;;;;;;;;;35.40;34.20;;;27.15;36.90;96480.91;5016163;28;19909;-49
2023/10/07 11:43:08;;;;;;;;;;;35.50;34.00;;;26.93;36.90;96484.97;5015581;28;20372;-47
2023/10/07 11:45:39;;;;;;;;;;;35.70;33.70;;;27.07;36.19;96490.03;5015622;28;19913;-46
2023/10/07 11:48:08;;;;;;;;;;;35.70;33.40;;;27.18;35.45;96488.41;5020779;28;19913;-46
2023/10/07 11:50:35;;;;;;;;;;;35.80;33.40;;;26.98;35.08;96499.19;5015670;28;19909;-48
2023/10/07 11:53:05;;;;;;;;;;;35.90;32.90;;;27.17;34.39;96500.47;5016853;28;19913;-49
2023/10/07 11:55:31;;;;;;;;;;;35.90;32.80;;;27.49;35.17;96503.28;5016916;28;19983;-47
2023/10/07 11:58:02;;;;;;;;;;;36.00;32.90;;;27.37;34.52;96491.25;5014078;28;19924;-49
2023/10/07 12:00:37;;;;;;;;;;;36.10;32.70;;;27.20;35.38;96491.56;5014948;28;19909;-47
2023/10/07 12:03:08;;;;;;;;;;;36.10;32.60;;;27.14;33.81;96498.44;5015997;28;19908;-47
2023/10/07 12:05:39;;;;;;;;;;;36.20;32.20;;;27.38;32.49;96495.56;5013592;28;20054;-47
2023/10/07 12:08:05;;;;;;;;;;;36.30;32.20;;;27.60;33.79;96494.19;5021011;28;19908;-49
2023/10/07 12:10:39;;;;;;;;;;;36.40;32.30;;;27.99;33.53;96485.38;5014861;28;19913;-50
2023/10/07 12:13:14;;;;;;;;;;;36.70;32.10;;;28.27;32.14;96487.97;5016409;28;20382;-46
2023/10/07 12:15:44;;;;;;;;;;;36.90;31.90;;;28.52;32.03;96483.88;5019007;28;19940;-46
2023/10/07 12:18:12;;;;;;;;;;;37.00;31.90;;;28.34;30.80;96482.66;5020418;28;20372;-46
2023/10/07 12:20:39;;;;;;;;;;;37.20;31.60;;;28.28;31.10;96479.38;5016330;28;19941;-46
2023/10/07 12:23:07;;;;;;;;;;;37.10;30.80;;;28.49;30.91;96465.41;5019782;28;19912;-54
2023/10/07 12:25:35;;;;;;;;;;;37.20;30.80;;;28.64;31.21;96474.69;5017829;28;19917;-52
2023/10/07 12:28:05;;;;;;;;;;;37.30;30.60;;;28.26;31.49;96470.72;5020171;28;19923;-51
2023/10/07 12:30:32;;;;;;;;;;;37.30;30.50;;;28.17;31.39;96470.13;5027922;28;19913;-55
2023/10/07 12:32:58;;;;;;;;;;;37.40;30.20;;;28.03;31.31;96461.59;5029012;28;20023;-51
2023/10/07 12:35:24;;;;;;;;;;;37.40;30.00;;;27.58;30.76;96462.88;5031524;28;19920;-53